sensor_id;sensor_type;location;lat;lon;timestamp;pressure;altitude;pressure_sealevel;temperature;humidity
54022;BME280;39936;51.058;17.220;2023-01-13T00:00:16;101201.84;;;6.83;100.00
54022;BME280;39936;51.058;17.220;2023-01-13T00:07:18;101201.55;;;6.89;100.00
54022;BME280;39936;51.058;17.220;2023-01-13T00:10:47;101198.95;;;6.87;100.00
54022;BME280;39936;51.058;17.220;2023-01-13T00:14:32;101187.17;;;6.90;100.00
54022;BME280;39936;51.058;17.220;2023-01-13T00:18:11;101196.37;;;6.91;100.00
54022;BME280;39936;51.058;17.220;2023-01-13T00:26:05;101189.57;;;6.96;100.00
54022;BME280;39936;51.058;17.220;2023-01-13T00:34:53;101182.30;;;7.05;100.00
54022;BME280;39936;51.058;17.220;2023-01-13T00:38:01;101179.93;;;7.09;100.00
54022;BME280;39936;51.058;17.220;2023-01-13T00:42:06;101179.66;;;7.12;100.00
54022;BME280;39936;51.058;17.220;2023-01-13T00:45:45;101179.13;;;7.10;100.00
54022;BME280;39936;51.058;17.220;2023-01-13T00:49:13;101181.78;;;7.14;100.00
54022;BME280;39936;51.058;17.220;2023-01-13T00:56:24;101181.82;;;7.18;100.00
54022;BME280;39936;51.058;17.220;2023-01-13T01:00:03;101176.27;;;7.22;100.00
54022;BME280;39936;51.058;17.220;2023-01-13T01:04:07;101171.62;;;7.20;100.00
54022;BME280;39936;51.058;17.220;2023-01-13T01:07:27;101166.63;;;7.19;100.00
54022;BME280;39936;51.058;17.220;2023-01-13T01:14:28;101167.30;;;7.26;100.00
54022;BME280;39936;51.058;17.220;2023-01-13T01:17:47;101154.00;;;7.22;100.00
54022;BME280;39936;51.058;17.220;2023-01-13T01:20:59;101151.25;;;7.28;100.00
54022;BME280;39936;51.058;17.220;2023-01-13T01:31:58;101135.43;;;7.34;100.00
54022;BME280;39936;51.058;17.220;2023-01-13T01:35:57;101135.20;;;7.34;100.00
54022;BME280;39936;51.058;17.220;2023-01-13T01:39:26;101130.49;;;7.35;100.00
54022;BME280;39936;51.058;17.220;2023-01-13T01:43:22;101123.49;;;7.32;100.00
54022;BME280;39936;51.058;17.220;2023-01-13T01:47:23;101123.05;;;7.29;100.00
54022;BME280;39936;51.058;17.220;2023-01-13T01:50:44;101114.61;;;7.30;100.00
54022;BME280;39936;51.058;17.220;2023-01-13T01:54:17;101104.29;;;7.26;100.00
54022;BME280;39936;51.058;17.220;2023-01-13T02:01:44;101099.45;;;7.24;100.00
54022;BME280;39936;51.058;17.220;2023-01-13T02:05:35;101098.48;;;7.21;100.00
54022;BME280;39936;51.058;17.220;2023-01-13T02:13:04;101095.45;;;7.13;100.00
54022;BME280;39936;51.058;17.220;2023-01-13T02:31:43;101086.35;;;7.16;99.93
54022;BME280;39936;51.058;17.220;2023-01-13T02:42:58;101091.27;;;7.14;99.97
54022;BME280;39936;51.058;17.220;2023-01-13T02:50:42;101090.63;;;7.22;98.94
54022;BME280;39936;51.058;17.220;2023-01-13T02:54:34;101088.68;;;7.25;98.30
54022;BME280;39936;51.058;17.220;2023-01-13T02:58:47;101088.19;;;7.27;97.93
54022;BME280;39936;51.058;17.220;2023-01-13T03:02:18;101085.69;;;7.23;98.18
54022;BME280;39936;51.058;17.220;2023-01-13T03:05:55;101086.45;;;7.27;97.98
54022;BME280;39936;51.058;17.220;2023-01-13T03:17:38;101079.48;;;7.25;97.82
54022;BME280;39936;51.058;17.220;2023-01-13T03:25:23;101076.52;;;7.25;97.62
54022;BME280;39936;51.058;17.220;2023-01-13T03:33:08;101078.62;;;7.32;97.05
54022;BME280;39936;51.058;17.220;2023-01-13T03:40:17;101080.12;;;7.35;96.40
54022;BME280;39936;51.058;17.220;2023-01-13T03:44:15;101074.25;;;7.36;96.65
54022;BME280;39936;51.058;17.220;2023-01-13T03:47:38;101071.67;;;7.33;97.21
54022;BME280;39936;51.058;17.220;2023-01-13T03:51:23;101066.60;;;7.31;97.32
54022;BME280;39936;51.058;17.220;2023-01-13T03:59:17;101060.37;;;7.30;97.37
54022;BME280;39936;51.058;17.220;2023-01-13T04:02:58;101060.45;;;7.29;97.39
54022;BME280;39936;51.058;17.220;2023-01-13T04:13:55;101059.62;;;7.29;96.90
54022;BME280;39936;51.058;17.220;2023-01-13T04:17:22;101066.17;;;7.27;96.67
54022;BME280;39936;51.058;17.220;2023-01-13T04:22:18;101060.34;;;7.25;96.95
54022;BME280;39936;51.058;17.220;2023-01-13T04:25:24;101061.89;;;7.26;96.92
54022;BME280;39936;51.058;17.220;2023-01-13T04:29:04;101062.98;;;7.26;96.93
54022;BME280;39936;51.058;17.220;2023-01-13T04:32:31;101056.19;;;7.23;96.95
54022;BME280;39936;51.058;17.220;2023-01-13T04:36:23;101052.09;;;7.22;97.04
54022;BME280;39936;51.058;17.220;2023-01-13T04:39:55;101049.87;;;7.20;97.33
54022;BME280;39936;51.058;17.220;2023-01-13T04:43:38;101051.85;;;7.21;96.93
54022;BME280;39936;51.058;17.220;2023-01-13T04:47:21;101045.20;;;7.23;96.77
54022;BME280;39936;51.058;17.220;2023-01-13T04:50:48;101041.91;;;7.23;96.67
54022;BME280;39936;51.058;17.220;2023-01-13T04:54:29;101040.34;;;7.28;96.17
54022;BME280;39936;51.058;17.220;2023-01-13T04:58:20;101035.59;;;7.32;95.80
54022;BME280;39936;51.058;17.220;2023-01-13T05:02:01;101034.79;;;7.38;95.25
54022;BME280;39936;51.058;17.220;2023-01-13T05:05:40;101037.76;;;7.43;94.46
54022;BME280;39936;51.058;17.220;2023-01-13T05:08:52;101037.63;;;7.48;93.63
54022;BME280;39936;51.058;17.220;2023-01-13T05:12:02;101037.86;;;7.51;93.22
54022;BME280;39936;51.058;17.220;2023-01-13T05:15:55;101044.25;;;7.55;92.96
54022;BME280;39936;51.058;17.220;2023-01-13T05:20:22;101042.15;;;7.53;92.82
54022;BME280;39936;51.058;17.220;2023-01-13T05:23:30;101042.54;;;7.58;92.42
54022;BME280;39936;51.058;17.220;2023-01-13T05:27:34;101040.91;;;7.61;91.95
54022;BME280;39936;51.058;17.220;2023-01-13T05:31:02;101040.41;;;7.63;91.94
54022;BME280;39936;51.058;17.220;2023-01-13T05:35:09;101035.40;;;7.64;92.05
54022;BME280;39936;51.058;17.220;2023-01-13T05:38:37;101035.80;;;7.61;92.26
54022;BME280;39936;51.058;17.220;2023-01-13T05:42:07;101036.15;;;7.58;92.59
54022;BME280;39936;51.058;17.220;2023-01-13T05:49:41;101031.37;;;7.53;92.67
54022;BME280;39936;51.058;17.220;2023-01-13T05:53:15;101033.61;;;7.56;92.38
54022;BME280;39936;51.058;17.220;2023-01-13T05:57:09;101030.63;;;7.56;92.39
54022;BME280;39936;51.058;17.220;2023-01-13T06:00:51;101035.91;;;7.57;92.58
54022;BME280;39936;51.058;17.220;2023-01-13T06:04:25;101041.87;;;7.58;93.17
54022;BME280;39936;51.058;17.220;2023-01-13T06:08:05;101043.51;;;7.53;93.77
54022;BME280;39936;51.058;17.220;2023-01-13T06:15:24;101050.80;;;7.58;94.17
54022;BME280;39936;51.058;17.220;2023-01-13T06:18:40;101047.40;;;7.55;94.35
54022;BME280;39936;51.058;17.220;2023-01-13T06:26:22;101039.28;;;7.53;95.25
54022;BME280;39936;51.058;17.220;2023-01-13T06:34:14;101037.30;;;7.49;95.54
54022;BME280;39936;51.058;17.220;2023-01-13T06:41:37;101044.09;;;7.48;95.46
54022;BME280;39936;51.058;17.220;2023-01-13T06:45:32;101035.01;;;7.46;95.71
54022;BME280;39936;51.058;17.220;2023-01-13T06:48:38;101039.33;;;7.44;95.93
54022;BME280;39936;51.058;17.220;2023-01-13T06:52:31;101037.71;;;7.45;96.07
54022;BME280;39936;51.058;17.220;2023-01-13T06:56:04;101039.79;;;7.46;96.14
54022;BME280;39936;51.058;17.220;2023-01-13T07:00:14;101039.80;;;7.50;96.04
54022;BME280;39936;51.058;17.220;2023-01-13T07:03:20;101037.37;;;7.48;96.16
54022;BME280;39936;51.058;17.220;2023-01-13T07:07:01;101036.21;;;7.54;95.90
54022;BME280;39936;51.058;17.220;2023-01-13T07:10:25;101044.63;;;7.53;96.22
54022;BME280;39936;51.058;17.220;2023-01-13T07:14:00;101042.38;;;7.55;96.19
54022;BME280;39936;51.058;17.220;2023-01-13T07:17:30;101039.70;;;7.57;96.11
54022;BME280;39936;51.058;17.220;2023-01-13T07:20:57;101043.40;;;7.64;95.54
54022;BME280;39936;51.058;17.220;2023-01-13T07:24:35;101045.23;;;7.65;95.12
54022;BME280;39936;51.058;17.220;2023-01-13T07:27:50;101045.27;;;7.68;95.08
54022;BME280;39936;51.058;17.220;2023-01-13T07:31:05;101042.12;;;7.69;95.43
54022;BME280;39936;51.058;17.220;2023-01-13T07:34:48;101041.91;;;7.68;95.95
54022;BME280;39936;51.058;17.220;2023-01-13T07:38:09;101041.41;;;7.69;96.14
54022;BME280;39936;51.058;17.220;2023-01-13T07:42:45;101042.16;;;7.68;97.07
54022;BME280;39936;51.058;17.220;2023-01-13T07:46:50;101048.62;;;7.68;97.45
54022;BME280;39936;51.058;17.220;2023-01-13T07:50:26;101044.73;;;7.66;97.54
54022;BME280;39936;51.058;17.220;2023-01-13T07:53:33;101051.55;;;7.68;97.44
54022;BME280;39936;51.058;17.220;2023-01-13T07:57:03;101051.42;;;7.64;97.64
54022;BME280;39936;51.058;17.220;2023-01-13T08:00:34;101046.07;;;7.63;97.67
54022;BME280;39936;51.058;17.220;2023-01-13T08:03:44;101036.40;;;7.54;98.15
54022;BME280;39936;51.058;17.220;2023-01-13T08:06:56;101045.54;;;7.69;97.95
54022;BME280;39936;51.058;17.220;2023-01-13T08:10:38;101041.23;;;7.69;97.63
54022;BME280;39936;51.058;17.220;2023-01-13T08:14:23;101027.59;;;7.67;97.36
54022;BME280;39936;51.058;17.220;2023-01-13T08:18:02;101039.14;;;7.75;96.43
54022;BME280;39936;51.058;17.220;2023-01-13T08:22:29;101038.61;;;7.84;95.81
54022;BME280;39936;51.058;17.220;2023-01-13T08:25:40;101045.85;;;7.89;94.94
54022;BME280;39936;51.058;17.220;2023-01-13T08:28:52;101051.37;;;7.93;94.14
54022;BME280;39936;51.058;17.220;2023-01-13T08:32:22;101049.59;;;7.97;93.98
54022;BME280;39936;51.058;17.220;2023-01-13T08:35:34;101051.20;;;8.01;93.83
54022;BME280;39936;51.058;17.220;2023-01-13T08:39:04;101053.67;;;8.06;93.35
54022;BME280;39936;51.058;17.220;2023-01-13T08:42:14;101053.41;;;8.10;92.99
54022;BME280;39936;51.058;17.220;2023-01-13T08:45:54;101055.08;;;8.16;92.69
54022;BME280;39936;51.058;17.220;2023-01-13T08:48:59;101052.95;;;8.24;92.65
54022;BME280;39936;51.058;17.220;2023-01-13T08:52:30;101050.22;;;8.32;91.91
54022;BME280;39936;51.058;17.220;2023-01-13T08:55:40;101049.79;;;8.35;91.52
54022;BME280;39936;51.058;17.220;2023-01-13T08:59:14;101050.77;;;8.43;91.73
54022;BME280;39936;51.058;17.220;2023-01-13T09:02:23;101052.47;;;8.49;92.03
54022;BME280;39936;51.058;17.220;2023-01-13T09:05:34;101057.38;;;8.52;91.89
54022;BME280;39936;51.058;17.220;2023-01-13T09:08:48;101056.10;;;8.50;91.45
54022;BME280;39936;51.058;17.220;2023-01-13T09:12:20;101056.66;;;8.52;92.07
54022;BME280;39936;51.058;17.220;2023-01-13T09:16:07;101060.52;;;8.51;93.04
54022;BME280;39936;51.058;17.220;2023-01-13T09:19:35;101058.36;;;8.55;93.12
54022;BME280;39936;51.058;17.220;2023-01-13T09:22:50;101059.05;;;8.60;92.80
54022;BME280;39936;51.058;17.220;2023-01-13T09:26:33;101061.95;;;8.58;92.67
54022;BME280;39936;51.058;17.220;2023-01-13T09:30:02;101065.40;;;8.54;92.34
54022;BME280;39936;51.058;17.220;2023-01-13T09:33:31;101062.83;;;8.53;92.73
54022;BME280;39936;51.058;17.220;2023-01-13T09:37:13;101057.85;;;8.59;92.79
54022;BME280;39936;51.058;17.220;2023-01-13T09:40:57;101064.52;;;8.60;93.73
54022;BME280;39936;51.058;17.220;2023-01-13T09:48:28;101071.84;;;8.61;95.03
54022;BME280;39936;51.058;17.220;2023-01-13T09:51:57;101061.98;;;8.53;96.35
54022;BME280;39936;51.058;17.220;2023-01-13T09:55:33;101055.77;;;8.49;97.09
54022;BME280;39936;51.058;17.220;2023-01-13T09:59:31;101049.40;;;8.47;97.58
54022;BME280;39936;51.058;17.220;2023-01-13T10:06:38;101045.31;;;8.51;97.44
54022;BME280;39936;51.058;17.220;2023-01-13T10:10:17;101040.50;;;8.45;98.87
54022;BME280;39936;51.058;17.220;2023-01-13T10:14:36;101037.75;;;8.45;99.99
54022;BME280;39936;51.058;17.220;2023-01-13T10:25:23;101025.86;;;8.43;100.00
54022;BME280;39936;51.058;17.220;2023-01-13T10:28:56;101021.85;;;8.44;100.00
54022;BME280;39936;51.058;17.220;2023-01-13T10:32:35;101026.16;;;8.52;100.00
54022;BME280;39936;51.058;17.220;2023-01-13T10:39:25;101016.10;;;8.74;100.00
54022;BME280;39936;51.058;17.220;2023-01-13T10:46:33;100995.05;;;8.82;99.97
54022;BME280;39936;51.058;17.220;2023-01-13T10:56:44;101010.44;;;8.99;97.46
54022;BME280;39936;51.058;17.220;2023-01-13T11:03:54;100994.13;;;9.12;95.20
54022;BME280;39936;51.058;17.220;2023-01-13T11:10:50;100992.09;;;9.30;93.57
54022;BME280;39936;51.058;17.220;2023-01-13T11:14:46;100992.82;;;9.43;93.15
54022;BME280;39936;51.058;17.220;2023-01-13T11:18:07;100979.77;;;9.50;91.76
54022;BME280;39936;51.058;17.220;2023-01-13T11:22:06;100979.89;;;9.53;90.64
54022;BME280;39936;51.058;17.220;2023-01-13T11:25:26;100985.07;;;9.53;90.53
54022;BME280;39936;51.058;17.220;2023-01-13T11:28:58;100972.28;;;9.66;91.41
54022;BME280;39936;51.058;17.220;2023-01-13T11:37:00;100978.63;;;9.72;88.86
54022;BME280;39936;51.058;17.220;2023-01-13T11:44:08;100972.44;;;9.80;88.74
54022;BME280;39936;51.058;17.220;2023-01-13T11:51:53;100975.52;;;9.73;88.38
54022;BME280;39936;51.058;17.220;2023-01-13T11:59:14;100975.49;;;9.58;89.69
54022;BME280;39936;51.058;17.220;2023-01-13T12:36:08;100981.34;;;9.22;90.84
54022;BME280;39936;51.058;17.220;2023-01-13T12:46:45;100972.87;;;9.29;92.81
54022;BME280;39936;51.058;17.220;2023-01-13T12:53:38;100966.56;;;9.41;92.41
54022;BME280;39936;51.058;17.220;2023-01-13T13:19:41;100977.76;;;9.75;87.24
54022;BME280;39936;51.058;17.220;2023-01-13T13:27:40;100984.38;;;9.72;87.11
54022;BME280;39936;51.058;17.220;2023-01-13T13:31:34;100994.94;;;9.69;87.01
54022;BME280;39936;51.058;17.220;2023-01-13T13:42:54;100996.02;;;9.62;87.56
54022;BME280;39936;51.058;17.220;2023-01-13T13:46:48;100998.52;;;9.57;87.72
54022;BME280;39936;51.058;17.220;2023-01-13T13:50:17;101004.01;;;9.61;88.06
54022;BME280;39936;51.058;17.220;2023-01-13T13:53:33;101003.37;;;9.58;87.65
54022;BME280;39936;51.058;17.220;2023-01-13T13:56:46;101000.91;;;9.57;87.44
54022;BME280;39936;51.058;17.220;2023-01-13T13:59:59;101003.06;;;9.54;87.76
54022;BME280;39936;51.058;17.220;2023-01-13T14:07:25;101010.13;;;9.51;87.59
54022;BME280;39936;51.058;17.220;2023-01-13T14:19:42;101029.27;;;9.56;88.54
54022;BME280;39936;51.058;17.220;2023-01-13T14:22:57;101031.02;;;9.47;88.37
54022;BME280;39936;51.058;17.220;2023-01-13T14:27:22;101030.58;;;9.44;88.57
54022;BME280;39936;51.058;17.220;2023-01-13T14:31:10;101037.89;;;9.42;88.44
54022;BME280;39936;51.058;17.220;2023-01-13T14:35:15;101041.28;;;9.35;88.36
54022;BME280;39936;51.058;17.220;2023-01-13T14:39:51;101043.80;;;9.37;88.49
54022;BME280;39936;51.058;17.220;2023-01-13T14:43:59;101044.06;;;9.44;88.75
54022;BME280;39936;51.058;17.220;2023-01-13T14:47:36;101042.83;;;9.42;88.90
54022;BME280;39936;51.058;17.220;2023-01-13T15:04:34;101072.88;;;9.17;93.87
54022;BME280;39936;51.058;17.220;2023-01-13T15:12:28;101086.31;;;8.99;96.44
54022;BME280;39936;51.058;17.220;2023-01-13T15:15:57;101100.93;;;8.98;96.71
54022;BME280;39936;51.058;17.220;2023-01-13T15:19:31;101100.40;;;8.95;96.95
54022;BME280;39936;51.058;17.220;2023-01-13T15:23:09;101101.58;;;8.84;97.46
54022;BME280;39936;51.058;17.220;2023-01-13T15:26:50;101109.37;;;8.66;99.66
54022;BME280;39936;51.058;17.220;2023-01-13T15:30:18;101121.03;;;8.55;100.00
54022;BME280;39936;51.058;17.220;2023-01-13T15:33:48;101128.78;;;8.36;100.00
54022;BME280;39936;51.058;17.220;2023-01-13T15:37:18;101127.02;;;8.15;100.00
54022;BME280;39936;51.058;17.220;2023-01-13T15:40:31;101120.17;;;7.94;100.00
54022;BME280;39936;51.058;17.220;2023-01-13T15:43:53;101120.60;;;7.87;100.00
54022;BME280;39936;51.058;17.220;2023-01-13T15:47:17;101135.76;;;7.86;100.00
54022;BME280;39936;51.058;17.220;2023-01-13T15:51:01;101141.00;;;7.89;100.00
54022;BME280;39936;51.058;17.220;2023-01-13T15:54:14;101142.04;;;7.88;100.00
54022;BME280;39936;51.058;17.220;2023-01-13T15:57:33;101139.67;;;7.88;100.00
54022;BME280;39936;51.058;17.220;2023-01-13T16:00:48;101135.94;;;7.86;100.00
54022;BME280;39936;51.058;17.220;2023-01-13T16:04:28;101128.89;;;7.83;100.00
54022;BME280;39936;51.058;17.220;2023-01-13T16:07:39;101133.59;;;7.86;100.00
54022;BME280;39936;51.058;17.220;2023-01-13T16:10:52;101125.13;;;7.84;100.00
54022;BME280;39936;51.058;17.220;2023-01-13T16:14:22;101143.76;;;7.78;100.00
54022;BME280;39936;51.058;17.220;2023-01-13T16:17:58;101144.90;;;7.72;100.00
54022;BME280;39936;51.058;17.220;2023-01-13T16:28:52;101144.16;;;7.60;100.00
54022;BME280;39936;51.058;17.220;2023-01-13T16:32:22;101131.52;;;7.51;100.00
54022;BME280;39936;51.058;17.220;2023-01-13T16:36:35;101150.39;;;7.49;100.00
54022;BME280;39936;51.058;17.220;2023-01-13T16:44:20;101159.68;;;7.42;100.00
54022;BME280;39936;51.058;17.220;2023-01-13T16:47:32;101166.84;;;7.40;100.00
54022;BME280;39936;51.058;17.220;2023-01-13T16:51:12;101173.94;;;7.25;100.00
54022;BME280;39936;51.058;17.220;2023-01-13T16:58:54;101179.57;;;7.16;100.00
54022;BME280;39936;51.058;17.220;2023-01-13T17:02:45;101176.18;;;7.21;100.00
54022;BME280;39936;51.058;17.220;2023-01-13T17:06:26;101189.76;;;7.13;100.00
54022;BME280;39936;51.058;17.220;2023-01-13T17:13:40;101184.69;;;7.06;100.00
54022;BME280;39936;51.058;17.220;2023-01-13T17:17:27;101194.16;;;7.08;100.00
54022;BME280;39936;51.058;17.220;2023-01-13T17:21:42;101200.59;;;7.11;100.00
54022;BME280;39936;51.058;17.220;2023-01-13T17:25:59;101209.35;;;7.16;100.00
54022;BME280;39936;51.058;17.220;2023-01-13T17:29:44;101214.04;;;7.05;100.00
54022;BME280;39936;51.058;17.220;2023-01-13T17:33:04;101200.58;;;7.02;100.00
54022;BME280;39936;51.058;17.220;2023-01-13T17:36:14;101202.05;;;6.92;100.00
54022;BME280;39936;51.058;17.220;2023-01-13T17:39:39;101209.83;;;6.82;100.00
54022;BME280;39936;51.058;17.220;2023-01-13T17:43:27;101212.48;;;6.73;100.00
54022;BME280;39936;51.058;17.220;2023-01-13T17:46:53;101217.25;;;6.76;100.00
54022;BME280;39936;51.058;17.220;2023-01-13T17:50:15;101223.63;;;6.77;100.00
54022;BME280;39936;51.058;17.220;2023-01-13T17:53:51;101227.18;;;6.76;100.00
54022;BME280;39936;51.058;17.220;2023-01-13T17:57:08;101236.54;;;6.72;100.00
54022;BME280;39936;51.058;17.220;2023-01-13T18:01:11;101241.16;;;6.72;100.00
54022;BME280;39936;51.058;17.220;2023-01-13T18:04:39;101239.09;;;6.73;100.00
54022;BME280;39936;51.058;17.220;2023-01-13T18:08:15;101242.76;;;6.66;100.00
54022;BME280;39936;51.058;17.220;2023-01-13T18:12:14;101227.00;;;6.45;100.00
54022;BME280;39936;51.058;17.220;2023-01-13T18:16:05;101231.11;;;6.51;100.00
54022;BME280;39936;51.058;17.220;2023-01-13T18:24:04;101245.91;;;6.60;100.00
54022;BME280;39936;51.058;17.220;2023-01-13T18:27:31;101247.91;;;6.53;100.00
54022;BME280;39936;51.058;17.220;2023-01-13T18:31:16;101249.50;;;6.53;100.00
54022;BME280;39936;51.058;17.220;2023-01-13T18:34:58;101249.73;;;6.52;100.00
54022;BME280;39936;51.058;17.220;2023-01-13T18:38:12;101253.20;;;6.48;100.00
54022;BME280;39936;51.058;17.220;2023-01-13T18:41:46;101255.97;;;6.42;100.00
54022;BME280;39936;51.058;17.220;2023-01-13T18:46:05;101260.01;;;6.35;100.00
54022;BME280;39936;51.058;17.220;2023-01-13T18:49:13;101273.15;;;6.21;100.00
54022;BME280;39936;51.058;17.220;2023-01-13T18:52:44;101281.78;;;6.10;100.00
54022;BME280;39936;51.058;17.220;2023-01-13T18:55:59;101287.76;;;6.00;100.00
54022;BME280;39936;51.058;17.220;2023-01-13T18:59:29;101294.60;;;5.90;100.00
54022;BME280;39936;51.058;17.220;2023-01-13T19:03:04;101301.23;;;5.89;100.00
54022;BME280;39936;51.058;17.220;2023-01-13T19:06:33;101304.85;;;5.77;100.00
54022;BME280;39936;51.058;17.220;2023-01-13T19:10:20;101308.70;;;5.69;100.00
54022;BME280;39936;51.058;17.220;2023-01-13T19:13:52;101303.40;;;5.66;100.00
54022;BME280;39936;51.058;17.220;2023-01-13T19:17:41;101310.43;;;5.61;100.00
54022;BME280;39936;51.058;17.220;2023-01-13T19:21:12;101321.69;;;5.57;100.00
54022;BME280;39936;51.058;17.220;2023-01-13T19:24:29;101323.94;;;5.50;100.00
54022;BME280;39936;51.058;17.220;2023-01-13T19:28:21;101323.34;;;5.43;100.00
54022;BME280;39936;51.058;17.220;2023-01-13T19:36:20;101337.86;;;5.40;100.00
54022;BME280;39936;51.058;17.220;2023-01-13T19:39:54;101345.25;;;5.43;100.00
54022;BME280;39936;51.058;17.220;2023-01-13T19:43:31;101347.45;;;5.48;100.00
54022;BME280;39936;51.058;17.220;2023-01-13T19:47:43;101352.73;;;5.49;100.00
54022;BME280;39936;51.058;17.220;2023-01-13T19:51:19;101346.97;;;5.43;100.00
54022;BME280;39936;51.058;17.220;2023-01-13T19:54:37;101344.97;;;5.45;100.00
54022;BME280;39936;51.058;17.220;2023-01-13T19:58:01;101353.15;;;5.42;100.00
54022;BME280;39936;51.058;17.220;2023-01-13T20:02:17;101359.75;;;5.35;100.00
54022;BME280;39936;51.058;17.220;2023-01-13T20:06:06;101361.24;;;5.32;100.00
54022;BME280;39936;51.058;17.220;2023-01-13T20:09:40;101355.74;;;5.30;100.00
54022;BME280;39936;51.058;17.220;2023-01-13T20:13:31;101364.84;;;5.27;100.00
54022;BME280;39936;51.058;17.220;2023-01-13T20:17:20;101369.34;;;5.25;100.00
54022;BME280;39936;51.058;17.220;2023-01-13T20:20:45;101376.23;;;5.23;100.00
54022;BME280;39936;51.058;17.220;2023-01-13T20:23:58;101379.65;;;5.26;100.00
54022;BME280;39936;51.058;17.220;2023-01-13T20:27:16;101376.71;;;5.27;100.00
54022;BME280;39936;51.058;17.220;2023-01-13T20:31:14;101384.80;;;5.30;100.00
54022;BME280;39936;51.058;17.220;2023-01-13T20:34:26;101385.23;;;5.28;100.00
54022;BME280;39936;51.058;17.220;2023-01-13T20:38:08;101386.21;;;5.32;100.00
54022;BME280;39936;51.058;17.220;2023-01-13T20:41:38;101394.59;;;5.34;100.00
54022;BME280;39936;51.058;17.220;2023-01-13T20:45:33;101401.16;;;5.37;100.00
54022;BME280;39936;51.058;17.220;2023-01-13T20:48:45;101402.54;;;5.41;100.00
54022;BME280;39936;51.058;17.220;2023-01-13T20:52:27;101399.61;;;5.36;100.00
54022;BME280;39936;51.058;17.220;2023-01-13T20:55:56;101392.73;;;5.35;100.00
54022;BME280;39936;51.058;17.220;2023-01-13T20:59:05;101402.08;;;5.35;100.00
54022;BME280;39936;51.058;17.220;2023-01-13T21:02:29;101416.01;;;5.39;100.00
54022;BME280;39936;51.058;17.220;2023-01-13T21:05:49;101422.73;;;5.39;100.00
54022;BME280;39936;51.058;17.220;2023-01-13T21:09:46;101427.13;;;5.37;100.00
54022;BME280;39936;51.058;17.220;2023-01-13T21:13:05;101435.86;;;5.40;100.00
54022;BME280;39936;51.058;17.220;2023-01-13T21:16:45;101450.68;;;5.43;100.00
54022;BME280;39936;51.058;17.220;2023-01-13T21:20:25;101451.91;;;5.43;100.00
54022;BME280;39936;51.058;17.220;2023-01-13T21:23:56;101450.98;;;5.44;100.00
54022;BME280;39936;51.058;17.220;2023-01-13T21:27:02;101464.52;;;5.45;100.00
54022;BME280;39936;51.058;17.220;2023-01-13T21:31:06;101454.49;;;5.39;100.00
54022;BME280;39936;51.058;17.220;2023-01-13T21:34:38;101460.04;;;5.35;100.00
54022;BME280;39936;51.058;17.220;2023-01-13T21:38:21;101461.77;;;5.34;99.75
54022;BME280;39936;51.058;17.220;2023-01-13T21:42:16;101461.19;;;5.34;98.82
54022;BME280;39936;51.058;17.220;2023-01-13T21:45:58;101457.43;;;5.31;98.07
54022;BME280;39936;51.058;17.220;2023-01-13T21:49:49;101459.66;;;5.24;98.05
54022;BME280;39936;51.058;17.220;2023-01-13T21:52:58;101461.47;;;5.17;98.13
54022;BME280;39936;51.058;17.220;2023-01-13T21:56:39;101460.60;;;5.11;98.37
54022;BME280;39936;51.058;17.220;2023-01-13T22:00:08;101461.80;;;5.07;98.25
54022;BME280;39936;51.058;17.220;2023-01-13T22:03:49;101471.91;;;5.02;98.32
54022;BME280;39936;51.058;17.220;2023-01-13T22:08:13;101476.39;;;4.93;98.63
54022;BME280;39936;51.058;17.220;2023-01-13T22:11:39;101478.63;;;4.84;98.59
54022;BME280;39936;51.058;17.220;2023-01-13T22:15:10;101477.49;;;4.82;98.85
54022;BME280;39936;51.058;17.220;2023-01-13T22:18:19;101482.80;;;4.82;98.91
54022;BME280;39936;51.058;17.220;2023-01-13T22:22:25;101497.32;;;4.78;98.89
54022;BME280;39936;51.058;17.220;2023-01-13T22:29:30;101495.73;;;4.74;98.90
54022;BME280;39936;51.058;17.220;2023-01-13T22:32:59;101499.23;;;4.73;98.72
54022;BME280;39936;51.058;17.220;2023-01-13T22:36:09;101508.55;;;4.71;98.52
54022;BME280;39936;51.058;17.220;2023-01-13T22:39:29;101511.91;;;4.65;98.75
54022;BME280;39936;51.058;17.220;2023-01-13T22:42:57;101519.88;;;4.68;99.40
54022;BME280;39936;51.058;17.220;2023-01-13T22:46:09;101519.31;;;4.71;99.70
54022;BME280;39936;51.058;17.220;2023-01-13T22:49:18;101520.49;;;4.75;99.75
54022;BME280;39936;51.058;17.220;2023-01-13T22:52:49;101521.51;;;4.76;99.35
54022;BME280;39936;51.058;17.220;2023-01-13T22:56:17;101526.56;;;4.79;99.36
54022;BME280;39936;51.058;17.220;2023-01-13T22:59:32;101530.80;;;4.81;99.03
54022;BME280;39936;51.058;17.220;2023-01-13T23:02:40;101535.37;;;4.79;98.63
54022;BME280;39936;51.058;17.220;2023-01-13T23:06:08;101537.71;;;4.77;98.94
54022;BME280;39936;51.058;17.220;2023-01-13T23:09:57;101544.38;;;4.73;99.13
54022;BME280;39936;51.058;17.220;2023-01-13T23:13:26;101541.60;;;4.76;99.61
54022;BME280;39936;51.058;17.220;2023-01-13T23:16:48;101542.85;;;4.77;99.51
54022;BME280;39936;51.058;17.220;2023-01-13T23:20:41;101541.80;;;4.81;99.35
54022;BME280;39936;51.058;17.220;2023-01-13T23:24:11;101539.03;;;4.82;99.16
54022;BME280;39936;51.058;17.220;2023-01-13T23:27:51;101539.14;;;4.79;99.31
54022;BME280;39936;51.058;17.220;2023-01-13T23:31:43;101547.59;;;4.72;99.46
54022;BME280;39936;51.058;17.220;2023-01-13T23:35:01;101546.98;;;4.74;99.18
54022;BME280;39936;51.058;17.220;2023-01-13T23:38:07;101547.42;;;4.72;99.31
54022;BME280;39936;51.058;17.220;2023-01-13T23:41:46;101550.11;;;4.73;99.45